Time;durP1;ratioP1;P1;durP2;ratioP2;P2;SDS_P1;SDS_P2;PMS_P1;PMS_P2;Temp;Humidity;BMP_temperature;BMP_pressure;BME280_temperature;BME280_humidity;BME280_pressure;Samples;Min_cycle;Max_cycle;Signal;HPM_P1;HPM_P2
2024/01/25 00:01:20;;;;;;;42.40;12.48;;;8.40;99.90;;;;;;3092510;28;20241;-74
2024/01/25 00:02:51;;;;;;;31.08;11.10;;;8.40;99.90;;;;;;3100476;28;20037;-74
2024/01/25 00:04:22;;;;;;;22.38;8.70;;;8.40;99.90;;;;;;3112897;28;20030;-73
2024/01/25 00:05:53;;;;;;;43.22;11.52;;;8.40;99.90;;;;;;3108987;28;20145;-73
2024/01/25 00:07:24;;;;;;;31.27;11.57;;;8.30;99.90;;;;;;3104437;28;20212;-73
2024/01/25 00:08:55;;;;;;;33.05;13.38;;;8.30;99.90;;;;;;3107311;28;20017;-73
2024/01/25 00:10:26;;;;;;;41.20;13.82;;;8.30;99.90;;;;;;3116837;28;20030;-72
2024/01/25 00:11:56;;;;;;;33.03;11.55;;;8.40;99.90;;;;;;3112543;28;20071;-72
2024/01/25 00:13:27;;;;;;;33.45;10.52;;;8.40;99.90;;;;;;3116696;28;20042;-72
2024/01/25 00:14:58;;;;;;;31.70;9.93;;;8.40;99.90;;;;;;3108236;28;20033;-73
2024/01/25 00:16:29;;;;;;;39.80;10.40;;;8.40;99.90;;;;;;3117160;28;20290;-73
2024/01/25 00:17:59;;;;;;;45.63;12.25;;;8.40;99.90;;;;;;3117917;28;20053;-73
2024/01/25 00:19:30;;;;;;;39.83;12.70;;;8.40;99.90;;;;;;3102755;28;20312;-73
2024/01/25 00:21:01;;;;;;;37.67;11.02;;;8.40;99.90;;;;;;3111472;28;20014;-73
2024/01/25 00:22:32;;;;;;;37.55;13.13;;;8.30;99.90;;;;;;3108697;28;20073;-73
2024/01/25 00:24:03;;;;;;;29.08;12.77;;;8.30;99.90;;;;;;3129132;28;20226;-73
2024/01/25 00:25:33;;;;;;;34.80;12.05;;;8.30;99.90;;;;;;3108466;28;20094;-73
2024/01/25 00:27:04;;;;;;;32.40;12.80;;;8.30;99.90;;;;;;3112004;28;20695;-73
2024/01/25 00:28:35;;;;;;;30.05;10.63;;;8.40;99.90;;;;;;3095138;28;20022;-74
2024/01/25 00:30:06;;;;;;;37.13;11.88;;;8.40;99.90;;;;;;3120418;28;20382;-73
2024/01/25 00:31:37;;;;;;;46.78;12.48;;;8.40;99.90;;;;;;3120623;28;20072;-72
2024/01/25 00:33:08;;;;;;;35.17;13.13;;;8.30;99.90;;;;;;3117332;28;20030;-74
2024/01/25 00:34:41;;;;;;;21.88;9.15;;;8.20;99.90;;;;;;3104118;28;20034;-73
2024/01/25 00:36:13;;;;;;;44.35;13.43;;;8.10;99.90;;;;;;3099886;28;20053;-73
2024/01/25 00:37:44;;;;;;;31.85;11.10;;;8.10;99.90;;;;;;3108706;28;20068;-73
2024/01/25 00:39:15;;;;;;;54.22;17.70;;;8.10;99.90;;;;;;3115024;28;20021;-73
2024/01/25 00:40:46;;;;;;;36.00;12.82;;;8.10;99.90;;;;;;3124893;28;20092;-73
2024/01/25 00:42:22;;;;;;;47.00;12.02;;;8.10;99.90;;;;;;3128968;28;20028;-74
2024/01/25 00:43:53;;;;;;;38.08;12.07;;;8.00;99.90;;;;;;3140941;28;20091;-74
2024/01/25 00:45:24;;;;;;;36.95;10.60;;;7.90;99.90;;;;;;3120309;28;20025;-73
2024/01/25 00:46:55;;;;;;;39.00;12.80;;;7.70;99.90;;;;;;3125301;28;20079;-73
2024/01/25 00:48:26;;;;;;;41.40;12.85;;;7.80;99.90;;;;;;3140971;28;20092;-73
2024/01/25 00:49:57;;;;;;;32.42;12.70;;;7.70;99.90;;;;;;3119457;28;20029;-73
2024/01/25 00:51:28;;;;;;;22.88;10.85;;;7.70;99.90;;;;;;3104358;28;20031;-74
2024/01/25 00:52:59;;;;;;;23.33;9.05;;;7.70;99.90;;;;;;3112024;28;20294;-73
2024/01/25 00:54:30;;;;;;;38.80;12.07;;;7.70;99.90;;;;;;3108092;28;20205;-73
2024/01/25 00:56:01;;;;;;;33.85;9.82;;;8.00;99.90;;;;;;3112388;28;20053;-73
2024/01/25 00:57:32;;;;;;;26.40;8.80;;;7.60;99.90;;;;;;3104381;28;20030;-73
2024/01/25 00:59:03;;;;;;;38.13;11.52;;;7.50;99.90;;;;;;3106693;28;20136;-74
2024/01/25 01:00:35;;;;;;;42.35;14.00;;;7.40;99.90;;;;;;3116576;28;20069;-73
2024/01/25 01:02:10;;;;;;;42.45;12.60;;;7.40;99.90;;;;;;3115823;28;20057;-73
2024/01/25 01:03:42;;;;;;;36.85;12.05;;;7.40;99.90;;;;;;3113058;28;20018;-73
2024/01/25 01:05:13;;;;;;;31.73;9.85;;;7.40;99.90;;;;;;3111904;28;20069;-73
2024/01/25 01:06:44;;;;;;;45.97;13.27;;;9.20;99.90;;;;;;3099981;28;20026;-73
2024/01/25 01:08:15;;;;;;;19.55;10.57;;;7.40;99.90;;;;;;3108651;28;20025;-74
2024/01/25 01:09:46;;;;;;;39.33;14.85;;;7.30;99.90;;;;;;3111189;28;20393;-73
2024/01/25 01:11:16;;;;;;;27.45;9.98;;;7.40;99.90;;;;;;3108594;28;20026;-72
2024/01/25 01:12:47;;;;;;;46.95;10.40;;;7.40;99.90;;;;;;3104528;28;20120;-73
2024/01/25 01:14:18;;;;;;;35.30;11.73;;;7.30;99.90;;;;;;3104953;28;20094;-73
2024/01/25 01:15:49;;;;;;;34.20;10.82;;;7.30;99.90;;;;;;3103675;28;20056;-73
2024/01/25 01:17:20;;;;;;;40.80;10.88;;;7.20;99.90;;;;;;3099714;28;20038;-72
2024/01/25 01:18:51;;;;;;;34.08;8.63;;;7.20;99.90;;;;;;3102776;28;20053;-73
2024/01/25 01:20:22;;;;;;;33.28;12.23;;;7.30;99.90;;;;;;3103939;28;20050;-73
2024/01/25 01:21:53;;;;;;;25.05;10.02;;;7.10;99.90;;;;;;3099680;28;20100;-73
2024/01/25 01:23:23;;;;;;;20.02;8.35;;;7.10;99.90;;;;;;3099935;28;20035;-73
2024/01/25 01:24:57;;;;;;;25.58;10.43;;;7.10;99.90;;;;;;3091847;28;20050;-73
2024/01/25 01:26:28;;;;;;;43.35;13.05;;;7.00;99.90;;;;;;3100726;28;20065;-73
2024/01/25 01:27:58;;;;;;;31.58;10.75;;;7.00;99.90;;;;;;3106723;28;20211;-73
2024/01/25 01:29:29;;;;;;;22.48;8.55;;;7.10;99.90;;;;;;3120569;28;20033;-72
2024/01/25 01:31:00;;;;;;;26.23;9.25;;;7.00;99.90;;;;;;3118517;28;20017;-72
2024/01/25 01:32:30;;;;;;;29.42;11.23;;;7.10;99.90;;;;;;3114515;28;20307;-74
2024/01/25 01:34:01;;;;;;;38.70;11.18;;;7.00;99.90;;;;;;3118339;28;20030;-73
2024/01/25 01:35:32;;;;;;;25.73;11.70;;;7.00;99.90;;;;;;3118246;28;20315;-72
2024/01/25 01:37:03;;;;;;;22.73;8.75;;;6.90;99.90;;;;;;3110875;28;20026;-73
2024/01/25 01:38:34;;;;;;;34.13;10.18;;;6.90;99.90;;;;;;3117057;28;20271;-72
2024/01/25 01:40:06;;;;;;;31.70;11.07;;;6.90;99.90;;;;;;3105958;28;20025;-72
2024/01/25 01:41:36;;;;;;;39.88;12.23;;;6.90;99.90;;;;;;3106760;28;20286;-73
2024/01/25 01:43:07;;;;;;;43.33;12.50;;;6.80;99.90;;;;;;3093925;28;20023;-73
2024/01/25 01:44:39;;;;;;;41.90;9.32;;;6.70;99.90;;;;;;3102244;28;20113;-72
2024/01/25 01:46:12;;;;;;;37.38;15.30;;;6.70;99.90;;;;;;3093798;28;20224;-72
2024/01/25 01:47:43;;;;;;;39.10;12.55;;;6.70;99.90;;;;;;3103047;28;20058;-72
2024/01/25 01:49:15;;;;;;;19.52;8.77;;;6.70;99.90;;;;;;3110556;28;20142;-73
2024/01/25 01:50:47;;;;;;;31.90;10.48;;;6.70;99.90;;;;;;3106171;28;20394;-72
2024/01/25 01:52:18;;;;;;;29.55;10.15;;;6.70;99.90;;;;;;3093844;28;20030;-73
2024/01/25 01:53:49;;;;;;;40.67;12.02;;;6.60;99.90;;;;;;3114252;28;20033;-73
2024/01/25 01:55:21;;;;;;;36.13;10.95;;;6.70;99.90;;;;;;3110004;28;20046;-73
2024/01/25 01:56:53;;;;;;;25.80;10.70;;;6.70;99.90;;;;;;3117740;28;20270;-73
2024/01/25 01:58:24;;;;;;;31.38;11.18;;;;;;;;;;3118425;28;20033;-73
2024/01/25 01:59:57;;;;;;;24.63;11.20;;;6.70;99.90;;;;;;3130083;28;20080;-73
2024/01/25 02:01:28;;;;;;;29.23;12.77;;;6.70;99.90;;;;;;3111917;28;20391;-73
2024/01/25 02:03:00;;;;;;;36.17;12.05;;;6.70;99.90;;;;;;3114659;28;20030;-72
2024/01/25 02:04:30;;;;;;;39.20;9.68;;;6.60;99.90;;;;;;3130318;28;20021;-73
2024/01/25 02:06:02;;;;;;;34.30;13.63;;;6.50;99.90;;;;;;3122195;28;20052;-72
2024/01/25 02:07:33;;;;;;;35.97;10.68;;;6.40;99.90;;;;;;3114175;28;20028;-72
2024/01/25 02:09:04;;;;;;;33.50;12.98;;;6.30;99.90;;;;;;3117142;28;20025;-73
2024/01/25 02:10:35;;;;;;;47.85;11.20;;;6.30;99.90;;;;;;3119310;28;20030;-74
2024/01/25 02:12:06;;;;;;;32.45;9.50;;;6.30;99.90;;;;;;3118203;28;20056;-73
2024/01/25 02:13:37;;;;;;;42.90;9.55;;;6.40;99.90;;;;;;3118272;28;20029;-75
2024/01/25 02:15:08;;;;;;;42.17;12.80;;;6.40;99.90;;;;;;3105686;28;20543;-74
2024/01/25 02:16:43;;;;;;;63.58;14.35;;;6.40;99.90;;;;;;3114149;28;20022;-73
2024/01/25 02:18:14;;;;;;;36.13;12.73;;;6.40;99.90;;;;;;3093648;28;20030;-73
2024/01/25 02:19:46;;;;;;;33.53;8.65;;;6.20;99.90;;;;;;3105512;28;20034;-73
2024/01/25 02:21:17;;;;;;;31.42;10.63;;;6.20;99.90;;;;;;3126636;28;20052;-73
2024/01/25 02:22:47;;;;;;;28.92;11.68;;;6.20;99.90;;;;;;3122563;28;20097;-73
2024/01/25 02:24:18;;;;;;;34.65;8.68;;;6.20;99.90;;;;;;3118226;28;20038;-74
2024/01/25 02:25:49;;;;;;;23.60;8.30;;;6.20;99.90;;;;;;3129964;28;20033;-74
2024/01/25 02:27:20;;;;;;;38.97;11.43;;;6.00;99.90;;;;;;3118175;28;20102;-74
2024/01/25 02:28:50;;;;;;;38.70;11.43;;;5.90;99.90;;;;;;3112484;28;20041;-73
2024/01/25 02:30:21;;;;;;;26.80;10.85;;;6.00;99.90;;;;;;3118249;28;20033;-73
2024/01/25 02:31:52;;;;;;;33.38;11.07;;;6.00;99.90;;;;;;3093452;28;20212;-74
2024/01/25 02:33:23;;;;;;;29.08;8.10;;;6.00;99.90;;;;;;3109643;28;20029;-73
2024/01/25 02:34:53;;;;;;;22.60;9.75;;;5.90;99.90;;;;;;3113605;28;20097;-73
2024/01/25 02:36:24;;;;;;;33.25;12.23;;;5.80;99.90;;;;;;3118012;28;20312;-73
2024/01/25 02:37:55;;;;;;;27.63;9.35;;;5.80;99.90;;;;;;3105731;28;20208;-73
2024/01/25 02:39:26;;;;;;;20.58;7.75;;;5.80;99.90;;;;;;3107698;28;20041;-73
2024/01/25 02:40:57;;;;;;;32.10;8.88;;;5.60;99.90;;;;;;3113478;28;20049;-73
2024/01/25 02:42:28;;;;;;;29.92;11.70;;;5.60;99.90;;;;;;3114019;28;20072;-73
2024/01/25 02:44:00;;;;;;;20.80;8.48;;;5.60;99.90;;;;;;3118747;28;20029;-73
2024/01/25 02:45:30;;;;;;;19.73;7.55;;;5.40;99.90;;;;;;3117669;28;20029;-74
2024/01/25 02:47:01;;;;;;;26.48;10.05;;;5.30;99.90;;;;;;3118575;28;20252;-73
2024/01/25 02:48:34;;;;;;;23.02;9.63;;;5.30;99.90;;;;;;3128854;28;20330;-73
2024/01/25 02:50:06;;;;;;;37.00;8.90;;;5.30;99.90;;;;;;3121883;28;20030;-73
2024/01/25 02:51:36;;;;;;;26.38;10.63;;;5.30;99.90;;;;;;3105336;28;20019;-74
2024/01/25 02:53:07;;;;;;;39.20;12.48;;;5.30;99.90;;;;;;3113457;28;20041;-73
2024/01/25 02:54:38;;;;;;;33.25;10.73;;;5.80;99.90;;;;;;3093542;28;20035;-75
2024/01/25 02:56:09;;;;;;;27.98;11.18;;;5.40;99.90;;;;;;3109326;28;20042;-74
2024/01/25 02:57:39;;;;;;;35.58;11.55;;;5.40;99.90;;;;;;3118186;28;20055;-73
2024/01/25 02:59:10;;;;;;;34.28;9.90;;;5.50;99.90;;;;;;3134188;28;20063;-74
2024/01/25 03:00:42;;;;;;;29.50;11.13;;;5.40;99.90;;;;;;3109358;28;20034;-73
2024/01/25 03:02:13;;;;;;;41.28;14.23;;;5.50;99.90;;;;;;3117713;28;20017;-73
2024/01/25 03:03:43;;;;;;;30.15;11.70;;;5.50;99.90;;;;;;3113405;28;20026;-73
2024/01/25 03:05:14;;;;;;;32.70;12.60;;;5.50;99.90;;;;;;3105502;28;20030;-73
2024/01/25 03:06:45;;;;;;;35.97;9.40;;;5.50;99.90;;;;;;3113803;28;20026;-74
2024/01/25 03:08:16;;;;;;;39.55;9.88;;;5.50;99.90;;;;;;3118475;28;20072;-74
2024/01/25 03:09:47;;;;;;;39.83;10.35;;;5.60;99.90;;;;;;3115558;28;20053;-74
2024/01/25 03:11:17;;;;;;;30.55;10.65;;;5.60;99.90;;;;;;3117396;28;20422;-74
2024/01/25 03:12:48;;;;;;;37.35;10.48;;;5.50;99.90;;;;;;3118084;28;20026;-73
2024/01/25 03:14:19;;;;;;;25.98;9.52;;;5.40;99.90;;;;;;3118235;28;20060;-73
2024/01/25 03:15:50;;;;;;;45.60;11.20;;;5.40;99.90;;;;;;3104921;28;20225;-74
2024/01/25 03:17:20;;;;;;;19.15;10.88;;;5.30;99.90;;;;;;3113116;28;20109;-73
2024/01/25 03:18:51;;;;;;;41.83;15.00;;;5.50;99.90;;;;;;3120361;28;20382;-73
2024/01/25 03:20:22;;;;;;;20.35;10.38;;;5.20;99.90;;;;;;3142010;28;20040;-73
2024/01/25 03:21:56;;;;;;;40.53;11.20;;;5.20;99.90;;;;;;3126059;28;20321;-73
2024/01/25 03:23:27;;;;;;;29.60;12.38;;;5.10;99.90;;;;;;3129196;28;20026;-73
2024/01/25 03:24:58;;;;;;;21.63;6.95;;;5.20;99.90;;;;;;3121876;28;20104;-74
2024/01/25 03:26:29;;;;;;;50.78;12.13;;;5.20;99.90;;;;;;3105074;28;20085;-73
2024/01/25 03:28:00;;;;;;;49.90;10.50;;;5.20;99.90;;;;;;3113874;28;20195;-73
2024/01/25 03:29:31;;;;;;;30.40;9.30;;;5.30;99.90;;;;;;3129272;28;20040;-74
2024/01/25 03:31:02;;;;;;;37.95;10.38;;;5.30;99.90;;;;;;3133178;28;20049;-73
2024/01/25 03:32:34;;;;;;;30.33;14.02;;;5.20;99.90;;;;;;3107833;28;20026;-74
2024/01/25 03:34:05;;;;;;;40.03;10.75;;;5.20;99.90;;;;;;3088419;28;20050;-73
2024/01/25 03:35:35;;;;;;;34.80;12.13;;;5.10;99.90;;;;;;3094976;28;20034;-74
2024/01/25 03:37:07;;;;;;;24.33;10.02;;;5.20;99.90;;;;;;3112946;28;20026;-73
2024/01/25 03:38:37;;;;;;;28.38;9.65;;;5.20;99.90;;;;;;3109263;28;20033;-75
2024/01/25 03:40:09;;;;;;;22.60;8.88;;;5.20;99.90;;;;;;3122908;28;20040;-74
2024/01/25 03:41:40;;;;;;;28.67;10.45;;;5.20;99.90;;;;;;3129909;28;20100;-73
2024/01/25 03:43:11;;;;;;;38.78;11.52;;;5.20;99.90;;;;;;3141034;28;20269;-73
2024/01/25 03:44:42;;;;;;;42.22;12.50;;;5.10;99.90;;;;;;3133598;28;20100;-73
2024/01/25 03:46:13;;;;;;;30.50;9.00;;;5.10;99.90;;;;;;3129039;28;20032;-73
2024/01/25 03:47:44;;;;;;;26.38;7.88;;;5.00;99.90;;;;;;3129753;28;20059;-73
2024/01/25 03:49:15;;;;;;;24.60;9.52;;;5.00;99.90;;;;;;3126831;28;20025;-73
2024/01/25 03:50:46;;;;;;;28.70;7.78;;;5.00;99.90;;;;;;3137616;28;20052;-74
2024/01/25 03:52:16;;;;;;;29.45;11.02;;;4.80;99.90;;;;;;3128909;28;20022;-74
2024/01/25 03:53:47;;;;;;;34.22;10.15;;;4.90;99.90;;;;;;3121254;28;20056;-73
2024/01/25 03:55:18;;;;;;;36.80;12.68;;;4.90;99.90;;;;;;3125405;28;20052;-73
2024/01/25 03:56:50;;;;;;;35.72;10.40;;;;;;;;;;3096410;28;20236;-74
2024/01/25 03:58:20;;;;;;;33.17;11.88;;;4.90;99.90;;;;;;3101259;28;20030;-73
2024/01/25 03:59:51;;;;;;;35.17;12.50;;;4.80;99.90;;;;;;3114333;28;20033;-74
2024/01/25 04:01:22;;;;;;;35.40;11.93;;;4.80;99.90;;;;;;3113901;28;20211;-73
2024/01/25 04:02:53;;;;;;;29.65;9.27;;;4.70;99.90;;;;;;3124803;28;20060;-74
2024/01/25 04:04:24;;;;;;;28.17;8.13;;;4.60;99.90;;;;;;3124961;28;20071;-73
2024/01/25 04:05:54;;;;;;;23.98;9.80;;;4.50;99.90;;;;;;3129750;28;20364;-73
2024/01/25 04:07:25;;;;;;;21.58;11.85;;;4.40;99.90;;;;;;3141201;28;20311;-73
2024/01/25 04:08:56;;;;;;;53.60;10.77;;;4.30;99.90;;;;;;3120776;28;20014;-74
2024/01/25 04:10:27;;;;;;;34.42;8.35;;;4.20;99.90;;;;;;3112293;28;20034;-74
2024/01/25 04:11:59;;;;;;;29.77;8.38;;;4.10;99.90;;;;;;3092497;28;20077;-73
2024/01/25 04:13:30;;;;;;;33.95;12.40;;;4.20;99.90;;;;;;3100540;28;20080;-73
2024/01/25 04:15:01;;;;;;;35.20;9.50;;;4.20;99.90;;;;;;3104971;28;20018;-73
2024/01/25 04:16:32;;;;;;;35.90;10.40;;;4.10;99.90;;;;;;3116560;28;20312;-73
2024/01/25 04:18:03;;;;;;;18.10;9.45;;;4.00;99.90;;;;;;3116615;28;20160;-74
2024/01/25 04:19:36;;;;;;;39.03;9.88;;;4.00;99.90;;;;;;3125321;28;20219;-73
2024/01/25 04:21:06;;;;;;;36.42;11.27;;;4.10;99.90;;;;;;3129343;28;20298;-73
2024/01/25 04:22:37;;;;;;;48.58;12.90;;;4.10;99.90;;;;;;3130068;28;20032;-73
2024/01/25 04:24:08;;;;;;;33.47;11.85;;;4.10;99.90;;;;;;3141110;28;20056;-74
2024/01/25 04:25:39;;;;;;;33.33;9.95;;;4.10;99.90;;;;;;3133474;28;20099;-74
2024/01/25 04:27:10;;;;;;;50.53;12.30;;;4.20;99.90;;;;;;3117450;28;20349;-73
2024/01/25 04:28:41;;;;;;;50.50;11.90;;;4.20;99.90;;;;;;3110712;28;20029;-73
2024/01/25 04:30:12;;;;;;;46.42;13.27;;;4.20;99.90;;;;;;3124145;28;20096;-74
2024/01/25 04:31:44;;;;;;;37.63;11.52;;;4.30;99.90;;;;;;3121166;28;20026;-74
2024/01/25 04:33:15;;;;;;;39.08;12.82;;;4.10;99.90;;;;;;3117034;28;20025;-74
2024/01/25 04:34:49;;;;;;;34.15;13.35;;;4.30;99.90;;;;;;3116451;28;20286;-74
2024/01/25 04:36:20;;;;;;;42.92;14.95;;;4.30;99.90;;;;;;3104254;28;20086;-73
2024/01/25 04:37:50;;;;;;;58.28;12.85;;;4.30;99.90;;;;;;3113223;28;20033;-74
2024/01/25 04:39:22;;;;;;;61.83;12.55;;;4.40;99.90;;;;;;3127480;28;20017;-73
2024/01/25 04:40:53;;;;;;;52.13;12.68;;;4.40;99.90;;;;;;3104522;28;20042;-73
2024/01/25 04:42:24;;;;;;;50.80;15.80;;;4.40;99.90;;;;;;3108746;28;20072;-73
2024/01/25 04:43:54;;;;;;;44.20;13.82;;;4.50;99.90;;;;;;3117024;28;20215;-73
2024/01/25 04:45:25;;;;;;;51.95;13.68;;;4.50;99.90;;;;;;3104440;28;20109;-73
2024/01/25 04:46:56;;;;;;;40.58;13.52;;;4.40;99.90;;;;;;3112952;28;20079;-73
2024/01/25 04:48:27;;;;;;;60.15;14.30;;;4.50;99.90;;;;;;3117430;28;20029;-73
2024/01/25 04:49:57;;;;;;;41.67;13.43;;;4.50;99.90;;;;;;3128400;28;20371;-73
2024/01/25 04:51:28;;;;;;;38.85;13.48;;;5.00;99.90;;;;;;3129604;28;20040;-74
2024/01/25 04:53:01;;;;;;;49.75;12.77;;;4.50;99.90;;;;;;3129026;28;20036;-74
2024/01/25 04:54:32;;;;;;;52.47;14.38;;;4.60;99.90;;;;;;3128591;28;20025;-73
2024/01/25 04:56:03;;;;;;;65.20;11.65;;;4.50;99.90;;;;;;3128296;28;20069;-73
2024/01/25 04:57:33;;;;;;;56.58;12.98;;;4.50;99.90;;;;;;3129283;28;20085;-73
2024/01/25 04:59:04;;;;;;;64.22;12.43;;;4.40;99.90;;;;;;3122705;28;20021;-73
2024/01/25 05:00:38;;;;;;;54.63;11.70;;;4.40;99.90;;;;;;3111894;28;20033;-73
2024/01/25 05:02:08;;;;;;;54.90;14.43;;;4.40;99.90;;;;;;3110810;28;20113;-73
2024/01/25 05:03:39;;;;;;;51.10;11.48;;;4.30;99.90;;;;;;3108371;28;20018;-73
2024/01/25 05:05:10;;;;;;;44.50;11.60;;;4.20;99.90;;;;;;3124812;28;20041;-73
2024/01/25 05:06:41;;;;;;;56.85;11.82;;;4.20;99.90;;;;;;3128422;28;20425;-72
2024/01/25 05:08:11;;;;;;;52.97;12.55;;;4.10;99.90;;;;;;3124807;28;20025;-73
2024/01/25 05:09:42;;;;;;;50.13;12.70;;;4.10;99.90;;;;;;3118473;28;20060;-73
2024/01/25 05:11:13;;;;;;;39.83;11.43;;;4.10;99.90;;;;;;3116197;28;20046;-73
2024/01/25 05:12:44;;;;;;;25.02;10.93;;;4.20;99.90;;;;;;3112456;28;20026;-74
2024/01/25 05:14:14;;;;;;;42.30;12.57;;;4.20;99.90;;;;;;3100063;28;20026;-73
2024/01/25 05:15:45;;;;;;;42.55;13.00;;;4.20;99.90;;;;;;3107521;28;20053;-72
2024/01/25 05:17:16;;;;;;;38.65;13.13;;;4.20;99.90;;;;;;3110329;28;20022;-74
2024/01/25 05:18:47;;;;;;;52.53;11.00;;;4.40;99.90;;;;;;3115609;28;20085;-74
2024/01/25 05:20:18;;;;;;;40.20;12.93;;;4.40;99.90;;;;;;3103549;28;20043;-73
2024/01/25 05:21:49;;;;;;;45.15;12.88;;;4.20;99.90;;;;;;3104103;28;20030;-73
2024/01/25 05:23:19;;;;;;;50.45;14.85;;;4.20;99.90;;;;;;3111649;28;20022;-73
2024/01/25 05:24:50;;;;;;;48.38;12.95;;;4.20;99.90;;;;;;3100308;28;20018;-74
2024/01/25 05:26:21;;;;;;;28.55;12.43;;;4.20;99.90;;;;;;3094587;28;20050;-74
2024/01/25 05:27:52;;;;;;;55.63;16.50;;;4.30;99.90;;;;;;3112551;28;20093;-74
2024/01/25 05:29:23;;;;;;;50.70;13.93;;;4.20;99.90;;;;;;3115782;28;20361;-75
2024/01/25 05:30:54;;;;;;;42.50;13.05;;;4.20;99.90;;;;;;3111834;28;20048;-74
2024/01/25 05:32:24;;;;;;;45.10;14.07;;;4.10;99.90;;;;;;3098722;28;20090;-74
2024/01/25 05:33:55;;;;;;;51.53;13.23;;;4.20;99.90;;;;;;3107936;28;20330;-73
2024/01/25 05:35:29;;;;;;;46.95;15.05;;;4.20;99.90;;;;;;3112026;28;20053;-73
2024/01/25 05:37:00;;;;;;;47.72;12.82;;;4.20;99.90;;;;;;3102722;28;20097;-72
2024/01/25 05:38:32;;;;;;;42.35;11.93;;;4.20;99.90;;;;;;3117308;28;20059;-75
2024/01/25 05:40:03;;;;;;;40.70;15.77;;;4.20;99.90;;;;;;3113706;28;20047;-72
2024/01/25 05:41:34;;;;;;;46.13;13.77;;;4.20;99.90;;;;;;3116444;28;20068;-71
2024/01/25 05:43:05;;;;;;;37.13;12.00;;;4.20;99.90;;;;;;3116375;28;20069;-73
2024/01/25 05:44:36;;;;;;;58.45;13.07;;;4.30;99.90;;;;;;3116540;28;20044;-73
2024/01/25 05:46:06;;;;;;;45.40;12.18;;;4.30;99.90;;;;;;3115734;28;20060;-72
2024/01/25 05:47:37;;;;;;;41.40;11.30;;;4.20;99.90;;;;;;3103407;28;20027;-72
2024/01/25 05:49:08;;;;;;;65.88;14.73;;;4.20;99.90;;;;;;3109998;28;20025;-73
2024/01/25 05:50:39;;;;;;;62.88;16.20;;;4.20;99.90;;;;;;3100344;28;20369;-72
2024/01/25 05:52:10;;;;;;;35.95;10.95;;;4.10;99.90;;;;;;3098001;28;20030;-71
2024/01/25 05:53:41;;;;;;;56.20;12.77;;;4.20;99.90;;;;;;3110001;28;20041;-71
2024/01/25 05:55:14;;;;;;;46.83;15.85;;;4.20;99.90;;;;;;3112268;28;20026;-72
2024/01/25 05:56:45;;;;;;;47.95;14.50;;;4.10;99.90;;;;;;3114446;28;20026;-73
2024/01/25 05:58:16;;;;;;;64.40;18.13;;;4.20;99.90;;;;;;3113862;28;20089;-74
2024/01/25 05:59:47;;;;;;;48.53;17.70;;;4.10;99.90;;;;;;3088276;28;20045;-75
2024/01/25 06:01:18;;;;;;;49.47;15.10;;;4.10;99.90;;;;;;3107165;28;20040;-73
2024/01/25 06:02:49;;;;;;;39.70;12.48;;;4.10;99.90;;;;;;3115600;28;20128;-71
2024/01/25 06:04:20;;;;;;;77.95;16.10;;;4.10;99.90;;;;;;3115568;28;20018;-72
2024/01/25 06:05:51;;;;;;;38.17;13.43;;;4.00;99.90;;;;;;3108381;28;20387;-77
2024/01/25 06:07:22;;;;;;;78.93;18.33;;;4.10;99.90;;;;;;3108105;28;20034;-76
2024/01/25 06:08:53;;;;;;;54.30;16.35;;;4.10;99.90;;;;;;3110927;28;20100;-74
2024/01/25 06:10:24;;;;;;;44.60;13.63;;;4.20;99.90;;;;;;3109930;28;20097;-76
2024/01/25 06:11:55;;;;;;;34.95;15.15;;;4.10;99.90;;;;;;3111397;28;20029;-74
2024/01/25 06:13:25;;;;;;;46.97;13.20;;;4.10;99.90;;;;;;3115709;28;20046;-75
2024/01/25 06:14:59;;;;;;;55.67;14.80;;;4.10;99.90;;;;;;3117990;28;20029;-74
2024/01/25 06:16:30;;;;;;;59.17;14.05;;;4.10;99.90;;;;;;3092064;28;20022;-73
2024/01/25 06:18:03;;;;;;;70.28;18.35;;;4.10;99.90;;;;;;3110476;28;20272;-74
2024/01/25 06:19:34;;;;;;;64.88;15.35;;;4.10;99.90;;;;;;3117608;28;20034;-73
2024/01/25 06:21:05;;;;;;;60.10;13.93;;;4.10;99.90;;;;;;3117987;28;20303;-71
2024/01/25 06:22:35;;;;;;;47.67;15.68;;;4.10;99.90;;;;;;3117393;28;20026;-72
2024/01/25 06:24:06;;;;;;;71.25;16.90;;;4.00;99.90;;;;;;3116552;28;20034;-72
2024/01/25 06:25:37;;;;;;;65.47;19.10;;;4.00;99.90;;;;;;3104863;28;20018;-72
2024/01/25 06:27:09;;;;;;;53.55;14.32;;;4.00;99.90;;;;;;3113088;28;20084;-73
2024/01/25 06:28:41;;;;;;;65.75;15.52;;;4.00;99.90;;;;;;3112822;28;20045;-72
2024/01/25 06:30:12;;;;;;;76.75;18.73;;;4.00;99.90;;;;;;3114224;28;20235;-72
2024/01/25 06:31:44;;;;;;;73.00;15.63;;;4.00;99.90;;;;;;3118029;28;20159;-73
2024/01/25 06:33:14;;;;;;;59.42;15.40;;;4.00;99.90;;;;;;3118639;28;20342;-73
2024/01/25 06:34:45;;;;;;;60.00;15.48;;;4.00;99.90;;;;;;3117316;28;20025;-73
2024/01/25 06:36:16;;;;;;;68.40;19.33;;;4.00;99.90;;;;;;3117899;28;20199;-73
2024/01/25 06:37:47;;;;;;;56.63;17.40;;;4.00;99.90;;;;;;3118334;28;20033;-73
2024/01/25 06:39:18;;;;;;;63.70;16.52;;;4.00;99.90;;;;;;3116488;28;20296;-72
2024/01/25 06:40:49;;;;;;;74.68;17.33;;;4.00;99.90;;;;;;3113437;28;20265;-72
2024/01/25 06:42:20;;;;;;;74.40;18.25;;;4.00;99.90;;;;;;3100792;28;20034;-73
2024/01/25 06:43:51;;;;;;;38.20;15.90;;;3.90;99.90;;;;;;3113353;28;20029;-72
2024/01/25 06:45:22;;;;;;;74.85;20.80;;;4.00;99.90;;;;;;3117782;28;20022;-72
2024/01/25 06:46:52;;;;;;;50.47;19.05;;;4.00;99.90;;;;;;3114058;28;20326;-72
2024/01/25 06:48:23;;;;;;;66.30;23.85;;;4.00;99.90;;;;;;3114008;28;20026;-71
2024/01/25 06:49:54;;;;;;;57.22;18.92;;;4.00;99.90;;;;;;3116154;28;20026;-72
2024/01/25 06:51:25;;;;;;;75.43;20.65;;;4.00;99.90;;;;;;3118497;28;20038;-72
2024/01/25 06:52:56;;;;;;;49.40;20.70;;;4.10;99.90;;;;;;3118236;28;20026;-71
2024/01/25 06:54:27;;;;;;;49.38;19.35;;;4.10;99.90;;;;;;3113728;28;20053;-71
2024/01/25 06:55:58;;;;;;;84.03;21.35;;;4.10;99.90;;;;;;3101605;28;20057;-72
2024/01/25 06:57:29;;;;;;;73.45;21.00;;;4.20;99.90;;;;;;3114296;28;20030;-72
2024/01/25 06:59:00;;;;;;;59.50;23.50;;;4.10;99.90;;;;;;3116495;28;20064;-71
2024/01/25 07:00:31;;;;;;;46.92;20.25;;;4.20;99.90;;;;;;3118284;28;20030;-73
2024/01/25 07:02:03;;;;;;;57.90;22.83;;;4.20;99.90;;;;;;3117842;28;20073;-72
2024/01/25 07:03:33;;;;;;;69.10;23.02;;;4.20;99.90;;;;;;3118635;28;20033;-72
2024/01/25 07:05:04;;;;;;;70.43;39.47;;;4.20;99.90;;;;;;3117405;28;20231;-72
2024/01/25 07:06:35;;;;;;;67.97;28.40;;;4.20;99.90;;;;;;3126257;28;20026;-71
2024/01/25 07:08:08;;;;;;;65.63;30.80;;;4.20;99.90;;;;;;3097476;28;20037;-71
2024/01/25 07:09:39;;;;;;;63.55;25.42;;;4.20;99.90;;;;;;3113791;28;20108;-72
2024/01/25 07:11:10;;;;;;;93.28;30.67;;;4.20;99.90;;;;;;3130643;28;20021;-72
2024/01/25 07:12:41;;;;;;;75.50;32.85;;;4.20;99.90;;;;;;3118603;28;20037;-71
2024/01/25 07:14:12;;;;;;;87.22;30.65;;;4.20;99.90;;;;;;3118331;28;20018;-72
2024/01/25 07:15:42;;;;;;;57.30;26.95;;;4.30;99.90;;;;;;3118496;28;20053;-72
2024/01/25 07:17:13;;;;;;;91.28;29.60;;;4.30;99.90;;;;;;3117619;28;20029;-72
2024/01/25 07:18:44;;;;;;;82.55;26.67;;;4.30;99.90;;;;;;3104136;28;20026;-72
2024/01/25 07:20:15;;;;;;;67.10;28.65;;;4.30;99.90;;;;;;3114082;28;20258;-71
2024/01/25 07:21:46;;;;;;;95.50;44.05;;;4.30;99.90;;;;;;3117338;28;20049;-72
2024/01/25 07:23:17;;;;;;;78.90;30.42;;;4.30;99.90;;;;;;3113479;28;20022;-72
2024/01/25 07:24:48;;;;;;;88.35;41.53;;;4.30;99.90;;;;;;3117245;28;20080;-72
2024/01/25 07:26:19;;;;;;;83.63;42.13;;;4.50;99.90;;;;;;3117521;28;20316;-72
2024/01/25 07:27:50;;;;;;;67.45;33.28;;;4.40;99.90;;;;;;3117295;28;20018;-71
2024/01/25 07:29:21;;;;;;;95.93;42.90;;;4.30;99.90;;;;;;3105113;28;20076;-73
2024/01/25 07:30:52;;;;;;;95.13;56.97;;;4.40;99.90;;;;;;3113182;28;20029;-72
2024/01/25 07:32:24;;;;;;;131.57;69.15;;;4.40;99.90;;;;;;3104988;28;20125;-71
2024/01/25 07:33:55;;;;;;;101.95;64.53;;;4.40;99.90;;;;;;3109613;28;20064;-71
2024/01/25 07:35:27;;;;;;;80.50;41.38;;;4.50;99.90;;;;;;3117432;28;20072;-71
2024/01/25 07:36:58;;;;;;;88.55;43.30;;;4.40;99.90;;;;;;3118241;28;20303;-72
2024/01/25 07:38:29;;;;;;;76.55;35.78;;;4.40;99.90;;;;;;3117509;28;20041;-73
2024/01/25 07:40:01;;;;;;;90.78;33.95;;;4.40;99.90;;;;;;3111878;28;20041;-72
2024/01/25 07:41:31;;;;;;;68.47;28.33;;;4.40;99.90;;;;;;3105002;28;20208;-72
2024/01/25 07:43:02;;;;;;;71.70;36.90;;;4.50;99.90;;;;;;3113793;28;20040;-72
2024/01/25 07:44:33;;;;;;;89.60;33.45;;;4.50;99.90;;;;;;3117683;28;20358;-72
2024/01/25 07:46:04;;;;;;;115.22;39.25;;;4.50;99.90;;;;;;3116858;28;20029;-71
2024/01/25 07:47:35;;;;;;;94.03;35.58;;;4.50;99.90;;;;;;3117252;28;20193;-72
2024/01/25 07:49:05;;;;;;;92.43;31.85;;;4.50;99.90;;;;;;3116662;28;20389;-72